CDT,Max TemperatureF,Mean TemperatureF,Min TemperatureF,Max Dew PointF,MeanDew PointF,Min DewpointF,Max Humidity, Mean Humidity, Min Humidity, Max Sea Level PressureIn, Mean Sea Level PressureIn, Min Sea Level PressureIn, Max VisibilityMiles, Mean VisibilityMiles, Min VisibilityMiles, Max Wind SpeedMPH, Mean Wind SpeedMPH, Max Gust SpeedMPH,PrecipitationIn, CloudCover, Events, WindDirDegrees
2013-10-1,68,64,62,57,57,57,82,74,68,29.80,29.79,29.77,10,10,10,9,8,,0.00,1,,213
2013-10-2,,,,,,,,,,,,,,,,,,,,,,
2013-10-3,,,,,,,,,,,,,,,,,,,,,,
2013-10-4,59,58,57,60,59,57,100,100,100,30.00,29.96,29.93,10,6,2,15,9,20,0.00,8,Rain-Thunderstorm,85
2013-10-5,69,62,50,70,61,46,100,99,76,29.97,29.85,29.71,10,7,1,21,10,25,0.24,7,Rain-Thunderstorm,110
2013-10-6,55,44,33,44,39,34,100,91,52,29.78,29.73,29.70,10,6,0,8,2,,0.01,1,Fog,127
2013-10-7,65,50,37,48,44,37,100,95,44,30.07,29.90,29.73,10,8,0,15,8,,0.02,4,Fog-Rain,287
2013-10-8,75,54,34,48,41,35,100,76,34,30.12,30.07,30.04,10,9,2,13,5,21,0.00,1,,140
2013-10-9,72,56,39,50,45,39,100,83,41,30.18,30.13,30.09,10,8,1,14,6,17,0.00,1,,141
2013-10-10,73,54,35,52,40,36,100,93,38,30.17,30.12,30.04,10,6,1,10,4,16,0.00,1,,109
2013-10-11,75,56,40,57,47,41,100,88,53,30.04,29.98,29.86,10,6,1,17,5,28,0.00,1,,109
2013-10-12,65,51,37,57,49,35,92,70,43,30.19,29.93,29.82,10,10,10,17,9,26,0.00,3,,218
2013-10-13,61,46,30,41,34,30,100,77,34,30.44,30.36,30.21,10,9,2,13,6,22,0.00,0,,280
2013-10-14,61,42,24,44,30,23,100,90,50,30.46,30.38,30.12,10,5,1,17,2,25,0.00,0,,89
2013-10-15,58,52,46,57,48,42,100,92,67,30.08,29.86,29.73,10,9,3,16,10,22,0.07,6,Rain,152
2013-10-16,50,46,36,48,46,36,100,97,82,29.95,29.81,29.75,10,10,6,10,5,,0.01,8,,268
2013-10-17,55,40,26,45,33,27,100,95,51,29.94,29.88,29.78,10,4,1,9,1,,0.00,2,Rain,153
2013-10-18,48,41,34,45,40,34,100,87,62,29.95,29.86,29.78,10,10,5,15,7,24,0.01,6,Rain,264
2013-10-19,51,38,27,41,36,27,100,89,50,29.87,29.76,29.69,10,10,5,15,5,24,0.03,5,Rain,250
2013-10-20,44,34,24,43,32,25,100,99,87,29.85,29.78,29.66,10,5,0,10,4,,0.04,3,Fog-Rain,153
2013-10-21,38,34,30,34,26,21,93,72,52,29.96,29.91,29.86,10,10,7,17,11,24,0.00,7,Rain,277
2013-10-22,48,34,23,30,26,21,93,74,49,30.02,29.98,29.94,10,10,10,13,7,18,0.00,3,,290
2013-10-23,39,30,22,32,27,22,100,81,61,30.06,30.01,29.97,10,10,6,15,6,18,0.00,6,Snow,288
2013-10-24,44,34,25,27,25,23,97,68,46,30.32,30.20,30.07,10,10,10,16,9,22,0.00,6,,286
2013-10-25,51,36,23,31,27,22,96,63,40,30.35,30.16,29.81,10,10,10,22,7,32,0.00,5,,230
2013-10-26,51,43,32,36,30,26,81,58,40,30.09,29.94,29.75,10,10,10,20,13,30,0.00,5,,284
2013-10-27,56,39,22,32,27,22,100,71,36,30.06,29.97,29.87,10,10,10,18,5,24,0.00,1,,214
2013-10-28,41,34,26,30,26,23,100,72,53,30.45,30.34,30.13,10,10,10,13,5,20,0.00,5,,44
2013-10-29,48,40,32,37,31,25,100,75,62,30.44,30.31,30.14,10,10,6,10,5,,0.00,7,,81
2013-10-30,53,45,37,54,49,37,100,97,88,30.14,29.92,29.72,10,8,2,12,5,,0.00,8,,113
2013-10-31,55,48,41,55,50,41,100,100,99,29.71,29.49,29.32,10,5,0,16,5,22,0.02,8,Fog-Rain-Thunderstorm,170